Time;durP1;ratioP1;P1;durP2;ratioP2;P2;SDS_P1;SDS_P2;PMS_P1;PMS_P2;Temp;Humidity;BMP_temperature;BMP_pressure;BME280_temperature;BME280_humidity;BME280_pressure;Samples;Min_cycle;Max_cycle;Signal;HPM_P1;HPM_P2
2023/06/18 00:01:17;;;;;;;;;;;;;;;15.91;56.45;100122.97;5045787;28;1927;-54
2023/06/18 00:03:42;;;;;;;;;;;;;;;15.89;56.12;100123.25;5056323;28;1126;-54
2023/06/18 00:06:08;;;;;;;;;;;;;;;15.86;56.16;100121.06;5045276;28;1080;-53
2023/06/18 00:08:34;;;;;;;;;;;;;;;15.88;55.79;100124.34;5057281;28;1072;-54
2023/06/18 00:10:59;;;;;;;;;;;;;;;16.56;57.62;100130.09;5056976;28;1024;-51
2023/06/18 00:13:25;;;;;;;;;;;;;;;17.31;57.96;100130.69;5057128;28;1135;-54
2023/06/18 00:15:51;;;;;;;;;;;;;;;16.72;58.41;100137.09;5057465;28;1012;-54
2023/06/18 00:18:16;;;;;;;;;;;;;;;16.43;58.08;100132.41;5043054;28;1064;-54
2023/06/18 00:20:42;;;;;;;;;;;;;;;16.30;57.55;100141.31;5037631;28;1250;-54
2023/06/18 00:23:07;;;;;;;;;;;;;;;16.22;56.96;100133.69;5038332;28;1979;-54
2023/06/18 00:25:33;;;;;;;;;;;;;;;16.11;56.83;100132.94;5056578;28;1242;-52
2023/06/18 00:27:58;;;;;;;;;;;;;;;16.06;56.73;100136.56;5055683;28;1095;-54
2023/06/18 00:30:24;;;;;;;;;;;;;;;16.03;56.53;100130.81;5044672;28;1115;-50
2023/06/18 00:32:51;;;;;;;;;;;;;;;16.02;56.09;100137.41;5043737;28;1191;-49
2023/06/18 00:35:17;;;;;;;;;;;;;;;15.91;56.17;100133.94;5056944;28;1039;-53
2023/06/18 00:37:45;;;;;;;;;;;;;;;15.87;56.00;100138.34;5056895;28;1067;-53
2023/06/18 00:40:12;;;;;;;;;;;;;;;15.87;56.20;100143.81;5048901;28;877;-54
2023/06/18 00:42:39;;;;;;;;;;;;;;;15.88;55.94;100135.31;5051924;28;1983;-55
2023/06/18 00:45:05;;;;;;;;;;;;;;;16.99;58.14;100146.72;5057038;28;1208;-55
2023/06/18 00:47:31;;;;;;;;;;;;;;;17.26;58.26;100135.16;5043613;28;1179;-54
2023/06/18 00:49:57;;;;;;;;;;;;;;;16.67;58.23;100142.63;5056931;28;1709;-55
2023/06/18 00:52:23;;;;;;;;;;;;;;;16.50;57.71;100139.50;5055219;28;1009;-55
2023/06/18 00:54:49;;;;;;;;;;;;;;;16.33;57.56;100131.69;5044603;28;1092;-54
2023/06/18 00:57:15;;;;;;;;;;;;;;;16.26;56.92;100140.25;5056704;28;1059;-52
2023/06/18 00:59:42;;;;;;;;;;;;;;;16.21;56.47;100137.53;5038434;28;1061;-50
2023/06/18 01:02:08;;;;;;;;;;;;;;;16.14;56.37;100142.53;5056383;28;1961;-54
2023/06/18 01:04:33;;;;;;;;;;;;;;;16.03;56.47;100136.28;5030308;28;1238;-52
2023/06/18 01:07:01;;;;;;;;;;;;;;;16.01;56.39;100144.00;5033066;28;1233;-54
2023/06/18 01:09:26;;;;;;;;;;;;;;;15.96;56.23;100142.09;5039181;28;1064;-54
2023/06/18 01:11:52;;;;;;;;;;;;;;;15.90;56.09;100140.50;5024070;28;1167;-53
2023/06/18 01:14:28;;;;;;;;;;;;;;;15.87;55.92;100146.56;5036706;28;1176;-53
2023/06/18 01:17:00;;;;;;;;;;;;;;;16.17;57.08;100137.31;5032557;28;1113;-54
2023/06/18 01:19:46;;;;;;;;;;;;;;;17.36;57.90;100141.59;5036413;28;1149;-54
2023/06/18 01:22:18;;;;;;;;;;;;;;;16.66;58.40;100145.66;5025458;28;1906;-55
2023/06/18 01:24:50;;;;;;;;;;;;;;;16.47;57.73;100138.16;5056143;28;1126;-55
2023/06/18 01:27:16;;;;;;;;;;;;;;;16.34;57.37;100144.28;5038821;28;1207;-53
2023/06/18 01:29:42;;;;;;;;;;;;;;;16.19;56.93;100146.06;5023335;28;887;-55
2023/06/18 01:32:07;;;;;;;;;;;;;;;16.17;56.69;100141.94;5044562;28;1068;-54
2023/06/18 01:34:38;;;;;;;;;;;;;;;16.06;56.59;100147.53;5038279;28;1051;-53
2023/06/18 01:37:09;;;;;;;;;;;;;;;16.03;56.24;100142.63;5055924;28;1155;-53
2023/06/18 01:39:35;;;;;;;;;;;;;;;15.99;56.27;100152.53;5038082;28;1525;-55
2023/06/18 01:42:21;;;;;;;;;;;;;;;15.95;56.02;100150.59;5038116;28;1966;-51
2023/06/18 01:44:55;;;;;;;;;;;;;;;16.64;57.90;100151.44;5055954;28;1769;-53
2023/06/18 01:47:23;;;;;;;;;;;;;;;17.23;58.19;100148.63;5055436;28;1083;-53
2023/06/18 01:49:49;;;;;;;;;;;;;;;16.67;58.25;100156.34;5038298;28;1214;-54
2023/06/18 01:52:16;;;;;;;;;;;;;;;16.47;57.61;100151.06;5058874;28;1116;-52
2023/06/18 01:54:42;;;;;;;;;;;;;;;16.34;57.41;100158.84;5010813;28;1231;-52
2023/06/18 01:57:08;;;;;;;;;;;;;;;16.24;56.88;100150.66;5037082;28;1075;-56
2023/06/18 01:59:34;;;;;;;;;;;;;;;16.21;56.59;100154.00;5042232;28;1403;-55
2023/06/18 02:01:59;;;;;;;;;;;;;;;16.08;56.44;100150.78;5041885;28;1970;-54
2023/06/18 02:04:25;;;;;;;;;;;;;;;16.11;56.24;100156.81;5059772;28;1116;-52
2023/06/18 02:06:52;;;;;;;;;;;;;;;16.00;56.06;100156.88;5044935;28;1163;-52
2023/06/18 02:09:19;;;;;;;;;;;;;;;15.96;56.09;100157.75;5030395;28;1081;-53
2023/06/18 02:11:45;;;;;;;;;;;;;;;15.91;56.00;100158.59;5060096;28;1139;-54
2023/06/18 02:14:10;;;;;;;;;;;;;;;15.86;55.87;100169.59;5059833;28;1200;-53
2023/06/18 02:16:36;;;;;;;;;;;;;;;15.89;55.78;100166.28;5041028;28;1203;-53
2023/06/18 02:19:01;;;;;;;;;;;;;;;15.98;56.36;100163.78;5059491;28;1044;-52
2023/06/18 02:21:28;;;;;;;;;;;;;;;17.22;57.65;100160.72;5041433;28;1967;-54
2023/06/18 02:23:54;;;;;;;;;;;;;;;16.82;58.26;100171.03;5059547;28;988;-51
2023/06/18 02:26:19;;;;;;;;;;;;;;;16.42;58.30;100173.84;5041499;28;1131;-52
2023/06/18 02:28:46;;;;;;;;;;;;;;;16.29;57.74;100169.84;5040813;28;1080;-51
2023/06/18 02:31:11;;;;;;;;;;;;;;;16.20;57.18;100175.13;5045761;28;1155;-51
2023/06/18 02:33:37;;;;;;;;;;;;;;;16.14;56.75;100179.00;5059284;28;1155;-48
2023/06/18 02:36:03;;;;;;;;;;;;;;;16.13;56.30;100169.16;5059228;28;1048;-53
2023/06/18 02:38:28;;;;;;;;;;;;;;;16.01;56.47;100172.22;5059545;28;1151;-54
2023/06/18 02:40:55;;;;;;;;;;;;;;;16.13;56.87;100176.53;5058236;28;1135;-54
2023/06/18 02:43:20;;;;;;;;;;;;;;;17.31;57.92;100169.97;5039023;28;1989;-53
2023/06/18 02:45:46;;;;;;;;;;;;;;;16.71;58.43;100167.56;5039475;28;1144;-54
2023/06/18 02:48:12;;;;;;;;;;;;;;;16.52;57.85;100176.53;5029428;28;1229;-55
2023/06/18 02:50:38;;;;;;;;;;;;;;;16.38;57.31;100173.63;5041398;28;1167;-56
2023/06/18 02:53:04;;;;;;;;;;;;;;;16.21;57.13;100170.44;5040935;28;1120;-56
2023/06/18 02:55:31;;;;;;;;;;;;;;;16.16;56.93;100175.97;5045729;28;996;-54
2023/06/18 02:57:57;;;;;;;;;;;;;;;16.12;56.76;100172.16;5041024;28;1289;-52
2023/06/18 03:00:22;;;;;;;;;;;;;;;16.05;56.29;100173.31;5041183;28;1152;-54
2023/06/18 03:02:48;;;;;;;;;;;;;;;16.05;56.15;100175.25;5040721;28;1910;-54
2023/06/18 03:05:23;;;;;;;;;;;;;;;15.98;56.28;100172.81;5037937;28;1167;-55
2023/06/18 03:07:50;;;;;;;;;;;;;;;15.94;56.15;100177.22;5030408;28;1226;-54
2023/06/18 03:10:17;;;;;;;;;;;;;;;15.88;56.18;100170.16;5040874;28;1272;-55
2023/06/18 03:12:46;;;;;;;;;;;;;;;15.84;56.13;100175.34;5040949;28;1152;-51
2023/06/18 03:15:36;;;;;;;;;;;;;;;17.01;57.78;100182.97;5040716;28;1372;-53
2023/06/18 03:18:02;;;;;;;;;;;;;;;16.85;58.29;100189.69;5036964;28;1300;-50
2023/06/18 03:20:27;;;;;;;;;;;;;;;16.51;58.09;100188.59;5045980;28;1209;-49
2023/06/18 03:22:56;;;;;;;;;;;;;;;16.33;57.66;100189.31;5037124;28;1918;-50
2023/06/18 03:25:22;;;;;;;;;;;;;;;16.22;57.31;100185.81;5040721;28;1183;-48
2023/06/18 03:27:48;;;;;;;;;;;;;;;16.12;56.95;100178.47;5027156;28;1069;-50
2023/06/18 03:30:14;;;;;;;;;;;;;;;16.10;56.60;100183.41;5029442;28;1122;-51
2023/06/18 03:32:40;;;;;;;;;;;;;;;16.06;56.49;100172.22;5051898;28;1373;-50
2023/06/18 03:35:05;;;;;;;;;;;;;;;15.95;56.62;100181.59;5020459;28;1175;-50
2023/06/18 03:37:32;;;;;;;;;;;;;;;15.95;56.23;100184.34;5037473;28;1414;-50
2023/06/18 03:39:57;;;;;;;;;;;;;;;15.99;55.92;100181.84;5058316;28;1166;-50
2023/06/18 03:42:23;;;;;;;;;;;;;;;15.86;56.14;100183.28;5039868;28;1977;-52
2023/06/18 03:44:51;;;;;;;;;;;;;;;15.80;56.28;100189.94;5039069;28;1437;-50
2023/06/18 03:47:17;;;;;;;;;;;;;;;15.80;56.05;100192.66;5039825;28;1219;-48
2023/06/18 03:49:42;;;;;;;;;;;;;;;15.74;56.24;100176.22;5057425;28;1222;-50
2023/06/18 03:52:08;;;;;;;;;;;;;;;15.73;56.11;100185.53;5039424;28;1468;-50
2023/06/18 03:54:34;;;;;;;;;;;;;;;16.52;57.44;100193.00;5056814;28;1243;-52
2023/06/18 03:57:01;;;;;;;;;;;;;;;17.17;57.92;100196.53;5033426;28;1139;-53
2023/06/18 03:59:27;;;;;;;;;;;;;;;16.54;58.57;100195.44;5033342;28;1048;-52
2023/06/18 04:01:52;;;;;;;;;;;;;;;16.32;58.27;100191.22;5057655;28;1977;-54
2023/06/18 04:04:18;;;;;;;;;;;;;;;16.22;57.60;100196.78;5040106;28;1180;-50
2023/06/18 04:06:44;;;;;;;;;;;;;;;16.13;57.26;100195.75;5031618;28;1389;-47
2023/06/18 04:09:11;;;;;;;;;;;;;;;16.04;57.07;100199.09;5019509;28;1341;-56
2023/06/18 04:11:42;;;;;;;;;;;;;;;16.00;56.89;100192.53;5029719;28;1380;-58
2023/06/18 04:14:09;;;;;;;;;;;;;;;15.95;56.68;100187.09;5056203;28;1247;-57
2023/06/18 04:16:35;;;;;;;;;;;;;;;15.89;56.58;100199.19;5038945;28;1259;-56
2023/06/18 04:19:01;;;;;;;;;;;;;;;15.84;56.70;100197.28;5049974;28;1010;-53
2023/06/18 04:21:27;;;;;;;;;;;;;;;15.83;56.26;100192.91;5032249;28;1910;-57
2023/06/18 04:23:54;;;;;;;;;;;;;;;16.06;57.32;100196.88;5039223;28;1128;-60
2023/06/18 04:26:22;;;;;;;;;;;;;;;17.14;57.89;100199.84;5038925;28;1623;-58
2023/06/18 04:28:51;;;;;;;;;;;;;;;16.53;58.28;100210.28;5038669;28;1360;-53
2023/06/18 04:31:17;;;;;;;;;;;;;;;16.33;58.11;100203.84;5056949;28;989;-53
2023/06/18 04:33:43;;;;;;;;;;;;;;;16.15;57.66;100202.59;5038428;28;1460;-53
2023/06/18 04:36:09;;;;;;;;;;;;;;;16.14;57.25;100206.44;5039091;28;1189;-55
2023/06/18 04:38:35;;;;;;;;;;;;;;;16.05;56.93;100199.94;5039219;28;1245;-57
2023/06/18 04:41:01;;;;;;;;;;;;;;;16.04;56.60;100199.09;5056727;28;1168;-53
2023/06/18 04:43:27;;;;;;;;;;;;;;;15.96;56.63;100216.13;5024778;28;1909;-51
2023/06/18 04:45:54;;;;;;;;;;;;;;;15.88;56.82;100205.78;5039162;28;1384;-54
2023/06/18 04:48:22;;;;;;;;;;;;;;;15.90;56.45;100209.06;5038639;28;1408;-53
2023/06/18 04:50:48;;;;;;;;;;;;;;;15.85;56.45;100217.28;5038785;28;1146;-53
2023/06/18 04:53:14;;;;;;;;;;;;;;;15.86;56.24;100214.25;5038464;28;1159;-54
2023/06/18 04:55:40;;;;;;;;;;;;;;;16.22;57.30;100221.47;5048952;28;1156;-55
2023/06/18 04:58:06;;;;;;;;;;;;;;;16.54;56.11;100206.44;5038557;28;1282;-57
2023/06/18 05:00:33;;;;;;;;;;;;;;;16.11;54.63;100203.44;5038490;28;1356;-53
2023/06/18 05:03:00;;;;;;;;;;;;;;;15.89;53.05;100210.16;5038402;28;1910;-51
2023/06/18 05:05:26;;;;;;;;;;;;;;;15.85;52.14;100206.31;5037949;28;1431;-56
2023/06/18 05:07:53;;;;;;;;;;;;;;;15.77;51.63;100215.09;5038634;28;1170;-55
2023/06/18 05:10:19;;;;;;;;;;;;;;;15.76;51.05;100208.00;5038590;28;1114;-53
2023/06/18 05:12:46;;;;;;;;;;;;;;;15.71;50.82;100220.63;5038577;28;1230;-53
2023/06/18 05:15:12;;;;;;;;;;;;;;;15.82;50.00;100217.88;5038375;28;1156;-53
2023/06/18 05:17:37;;;;;;;;;;;;;;;15.76;50.14;100222.53;5048972;28;936;-50
2023/06/18 05:20:08;;;;;;;;;;;;;;;15.65;50.03;100212.72;5036459;28;1433;-54
2023/06/18 05:22:35;;;;;;;;;;;;;;;15.67;49.78;100222.28;5038626;28;1898;-55
2023/06/18 05:25:01;;;;;;;;;;;;;;;16.42;51.95;100221.34;5033780;28;1514;-52
2023/06/18 05:27:28;;;;;;;;;;;;;;;16.12;51.95;100232.50;5018876;28;1223;-54
2023/06/18 05:29:55;;;;;;;;;;;;;;;15.99;51.21;100225.72;5031804;28;1167;-52
2023/06/18 05:32:21;;;;;;;;;;;;;;;16.03;50.03;100233.13;5027233;28;1402;-52
2023/06/18 05:34:46;;;;;;;;;;;;;;;15.95;49.75;100235.63;5022367;28;1836;-51
2023/06/18 05:37:12;;;;;;;;;;;;;;;15.87;49.62;100237.84;5037811;28;1224;-48
2023/06/18 05:39:38;;;;;;;;;;;;;;;16.41;50.31;100236.16;5038139;28;1431;-51
2023/06/18 05:42:04;;;;;;;;;;;;;;;16.70;52.50;100246.34;5037787;28;1907;-58
2023/06/18 05:44:29;;;;;;;;;;;;;;;16.32;51.62;100245.28;5037937;28;1231;-53
2023/06/18 05:46:55;;;;;;;;;;;;;;;16.25;50.96;100253.81;5038046;28;1309;-55
2023/06/18 05:49:22;;;;;;;;;;;;;;;16.23;50.00;100251.38;5037959;28;2025;-51
2023/06/18 05:51:47;;;;;;;;;;;;;;;16.25;49.12;100253.81;5037876;28;2213;-53
2023/06/18 05:54:13;;;;;;;;;;;;;;;16.17;49.16;100251.69;5055776;28;1064;-48
2023/06/18 05:56:39;;;;;;;;;;;;;;;16.14;48.80;100263.22;5024813;28;1107;-54
2023/06/18 05:59:05;;;;;;;;;;;;;;;16.06;48.82;100261.88;5045028;28;1278;-55
2023/06/18 06:01:36;;;;;;;;;;;;;;;16.06;48.45;100262.72;5027227;28;1888;-53
2023/06/18 06:04:02;;;;;;;;;;;;;;;16.02;48.55;100269.03;5037523;28;1158;-51
2023/06/18 06:06:28;;;;;;;;;;;;;;;15.98;48.31;100266.03;5037653;28;1255;-48
2023/06/18 06:08:53;;;;;;;;;;;;;;;16.06;48.00;100270.94;5024610;28;1107;-49
2023/06/18 06:11:19;;;;;;;;;;;;;;;15.97;48.36;100275.38;5037985;28;1372;-52
2023/06/18 06:13:46;;;;;;;;;;;;;;;16.01;48.08;100268.22;5055401;28;1210;-51
2023/06/18 06:16:12;;;;;;;;;;;;;;;16.08;47.96;100271.47;5037971;28;1379;-52
2023/06/18 06:18:39;;;;;;;;;;;;;;;15.98;48.08;100262.50;5036162;28;1123;-52
2023/06/18 06:21:05;;;;;;;;;;;;;;;15.93;48.17;100262.50;5023993;28;1617;-53
2023/06/18 06:23:30;;;;;;;;;;;;;;;16.01;47.79;100270.97;5055442;28;1973;-54
2023/06/18 06:25:56;;;;;;;;;;;;;;;15.94;48.02;100264.16;5055727;28;1040;-55
2023/06/18 06:28:22;;;;;;;;;;;;;;;15.94;47.90;100273.19;5037993;28;1128;-51
2023/06/18 06:30:48;;;;;;;;;;;;;;;15.92;47.81;100272.63;5031870;28;1149;-51
2023/06/18 06:33:14;;;;;;;;;;;;;;;15.96;47.78;100273.72;5055078;28;1015;-51
2023/06/18 06:35:39;;;;;;;;;;;;;;;16.01;47.53;100275.63;5038067;28;1314;-52
2023/06/18 06:38:07;;;;;;;;;;;;;;;15.95;47.72;100283.06;5041214;28;1188;-51
2023/06/18 06:40:32;;;;;;;;;;;;;;;15.98;47.71;100287.19;5041630;28;1279;-50
2023/06/18 06:42:58;;;;;;;;;;;;;;;15.95;47.76;100276.75;5041265;28;1963;-53
2023/06/18 06:45:30;;;;;;;;;;;;;;;16.01;47.44;100287.41;5045125;28;1127;-50
2023/06/18 06:48:06;;;;;;;;;;;;;;;15.97;47.64;100280.84;5048546;28;1284;-50
2023/06/18 06:50:50;;;;;;;;;;;;;;;15.94;47.50;100281.41;5058878;28;941;-49
2023/06/18 06:53:44;;;;;;;;;;;;;;;16.00;47.51;100282.22;5039751;28;1278;-53
2023/06/18 06:56:10;;;;;;;;;;;;;;;15.98;47.31;100281.69;5040493;28;1299;-56
2023/06/18 06:58:38;;;;;;;;;;;;;;;15.95;47.51;100283.06;5040572;28;1084;-52
2023/06/18 07:01:03;;;;;;;;;;;;;;;15.94;47.55;100286.09;5058476;28;1044;-54
2023/06/18 07:03:29;;;;;;;;;;;;;;;15.93;47.46;100279.78;5040503;28;2000;-52
2023/06/18 07:05:55;;;;;;;;;;;;;;;15.95;47.25;100282.22;5058684;28;1108;-53
2023/06/18 07:08:20;;;;;;;;;;;;;;;15.96;47.40;100284.69;5058442;28;968;-51
2023/06/18 07:10:46;;;;;;;;;;;;;;;15.94;47.42;100281.41;5058341;28;1048;-54
2023/06/18 07:13:12;;;;;;;;;;;;;;;16.54;49.25;100294.25;5057716;28;1029;-50
2023/06/18 07:15:37;;;;;;;;;;;;;;;16.25;49.29;100286.75;5058121;28;1124;-51
2023/06/18 07:18:03;;;;;;;;;;;;;;;16.18;48.56;100291.72;5058580;28;1068;-51
2023/06/18 07:20:28;;;;;;;;;;;;;;;16.12;48.53;100281.88;5056440;28;1400;-53
2023/06/18 07:22:54;;;;;;;;;;;;;;;16.12;48.13;100287.34;5058098;28;2020;-53
2023/06/18 07:25:20;;;;;;;;;;;;;;;16.17;47.92;100287.34;5057790;28;1048;-47
2023/06/18 07:27:45;;;;;;;;;;;;;;;16.11;47.79;100297.50;5058139;28;1040;-51
2023/06/18 07:30:11;;;;;;;;;;;;;;;16.14;47.73;100285.16;5053882;28;1065;-52
2023/06/18 07:32:37;;;;;;;;;;;;;;;17.02;48.86;100285.41;5042963;28;1005;-50
2023/06/18 07:35:02;;;;;;;;;;;;;;;16.43;49.86;100283.31;5046672;28;1215;-52
2023/06/18 07:37:28;;;;;;;;;;;;;;;16.41;48.98;100296.53;5044667;28;1211;-51
2023/06/18 07:39:55;;;;;;;;;;;;;;;16.32;48.81;100295.47;5048571;28;1222;-49
2023/06/18 07:42:20;;;;;;;;;;;;;;;16.24;48.30;100296.91;5050842;28;2063;-53
2023/06/18 07:44:46;;;;;;;;;;;;;;;16.30;48.04;100292.22;5066103;28;1044;-53
2023/06/18 07:47:12;;;;;;;;;;;;;;;17.07;49.23;100294.41;5054801;28;1258;-53
2023/06/18 07:49:37;;;;;;;;;;;;;;;16.66;50.01;100289.22;5045508;28;1002;-53
2023/06/18 07:52:03;;;;;;;;;;;;;;;16.52;49.56;100290.97;5038605;28;988;-55
2023/06/18 07:54:28;;;;;;;;;;;;;;;16.49;48.92;100291.53;5048951;28;1093;-55
2023/06/18 07:56:54;;;;;;;;;;;;;;;16.53;48.27;100287.94;5056087;28;889;-51
2023/06/18 07:59:21;;;;;;;;;;;;;;;16.38;48.33;100291.63;5056521;28;1088;-52
2023/06/18 08:01:47;;;;;;;;;;;;;;;16.42;47.82;100289.94;5056472;28;1901;-53
2023/06/18 08:04:12;;;;;;;;;;;;;;;16.39;48.03;100295.97;5056824;28;992;-53
2023/06/18 08:06:38;;;;;;;;;;;;;;;16.38;47.89;100297.09;5056963;28;1013;-52
2023/06/18 08:09:03;;;;;;;;;;;;;;;16.31;47.79;100296.56;5056268;28;906;-53
2023/06/18 08:11:29;;;;;;;;;;;;;;;16.38;47.52;100308.06;5046867;28;1024;-53
2023/06/18 08:13:54;;;;;;;;;;;;;;;16.30;47.52;100300.44;5052816;28;1077;-54
2023/06/18 08:16:21;;;;;;;;;;;;;;;16.30;47.78;100305.94;5056674;28;1047;-54
2023/06/18 08:18:47;;;;;;;;;;;;;;;16.30;47.55;100305.94;5055734;28;1000;-53
2023/06/18 08:21:12;;;;;;;;;;;;;;;16.35;47.43;100308.63;5054715;28;1173;-52
2023/06/18 08:23:38;;;;;;;;;;;;;;;16.30;47.34;100305.94;5056104;28;1923;-53
2023/06/18 08:26:03;;;;;;;;;;;;;;;16.25;47.78;100308.69;5056392;28;1132;-53
2023/06/18 08:28:29;;;;;;;;;;;;;;;16.35;47.47;100299.59;5056318;28;1078;-52
2023/06/18 08:30:54;;;;;;;;;;;;;;;16.26;47.46;100310.34;5055900;28;1104;-52
2023/06/18 08:33:20;;;;;;;;;;;;;;;16.21;47.72;100302.94;5056495;28;1144;-55
2023/06/18 08:35:46;;;;;;;;;;;;;;;16.34;47.55;100300.69;5056426;28;1096;-54
2023/06/18 08:38:11;;;;;;;;;;;;;;;16.31;47.41;100299.31;5055725;28;1077;-54
2023/06/18 08:40:37;;;;;;;;;;;;;;;16.31;47.34;100307.53;5055948;28;1090;-54
2023/06/18 08:43:04;;;;;;;;;;;;;;;16.29;47.64;100308.97;5038021;28;1979;-53
2023/06/18 08:45:30;;;;;;;;;;;;;;;16.28;47.45;100310.88;5055388;28;1037;-55
2023/06/18 08:47:58;;;;;;;;;;;;;;;16.30;47.27;100308.66;5055409;28;1084;-50
2023/06/18 08:50:24;;;;;;;;;;;;;;;16.31;47.21;100302.06;5055644;28;1187;-53
2023/06/18 08:52:51;;;;;;;;;;;;;;;16.22;47.40;100295.53;5055610;28;1025;-52
2023/06/18 08:55:17;;;;;;;;;;;;;;;16.30;47.33;100294.13;5055746;28;1180;-53
2023/06/18 08:57:54;;;;;;;;;;;;;;;16.33;47.32;100296.31;5056441;28;1009;-52
2023/06/18 09:00:20;;;;;;;;;;;;;;;16.32;47.28;100294.66;5056448;28;1108;-56
2023/06/18 09:02:47;;;;;;;;;;;;;;;16.30;47.36;100289.47;5038710;28;1906;-54
2023/06/18 09:05:13;;;;;;;;;;;;;;;16.23;47.41;100288.97;5055598;28;1013;-53
2023/06/18 09:07:38;;;;;;;;;;;;;;;16.24;47.76;100301.56;5056060;28;1020;-54
2023/06/18 09:10:05;;;;;;;;;;;;;;;16.28;47.65;100296.34;5056375;28;1060;-55
2023/06/18 09:12:31;;;;;;;;;;;;;;;16.27;47.40;100300.19;5038063;28;1061;-52
2023/06/18 09:14:57;;;;;;;;;;;;;;;16.33;47.37;100305.34;5056387;28;1191;-55
2023/06/18 09:17:23;;;;;;;;;;;;;;;16.35;47.21;100292.16;5056268;28;1130;-53
2023/06/18 09:19:49;;;;;;;;;;;;;;;16.29;47.28;100292.50;5056115;28;1032;-55
2023/06/18 09:22:15;;;;;;;;;;;;;;;16.26;47.54;100307.59;5054510;28;1981;-52
2023/06/18 09:24:43;;;;;;;;;;;;;;;16.28;47.15;100296.34;5038031;28;1125;-57
2023/06/18 09:27:09;;;;;;;;;;;;;;;16.27;47.45;100289.19;5056015;28;1187;-55
2023/06/18 09:29:40;;;;;;;;;;;;;;;16.22;47.47;100292.81;5055868;28;1206;-54
2023/06/18 09:32:06;;;;;;;;;;;;;;;16.24;47.53;100287.84;5054977;28;1136;-55
2023/06/18 09:34:32;;;;;;;;;;;;;;;16.25;47.60;100287.56;5055615;28;1156;-55
2023/06/18 09:36:57;;;;;;;;;;;;;;;16.21;47.67;100291.16;5055274;28;1062;-55
2023/06/18 09:39:25;;;;;;;;;;;;;;;16.19;47.74;100282.41;5055855;28;1175;-56
2023/06/18 09:41:51;;;;;;;;;;;;;;;16.54;47.91;100297.81;5055703;28;1910;-54
2023/06/18 09:44:17;;;;;;;;;;;;;;;16.84;49.12;100290.44;5055547;28;1024;-54
2023/06/18 09:46:46;;;;;;;;;;;;;;;16.49;49.13;100273.13;5055798;28;1070;-54
2023/06/18 09:49:18;;;;;;;;;;;;;;;16.57;48.30;100277.22;5055697;28;1127;-54
2023/06/18 09:51:45;;;;;;;;;;;;;;;16.55;48.12;100274.75;5037665;28;1337;-54
2023/06/18 09:54:11;;;;;;;;;;;;;;;16.53;47.90;100273.41;5024768;28;1227;-50
2023/06/18 09:56:37;;;;;;;;;;;;;;;16.50;48.08;100265.75;5055594;28;973;-53
2023/06/18 09:59:03;;;;;;;;;;;;;;;16.47;47.87;100266.31;5055504;28;1164;-50
2023/06/18 10:01:29;;;;;;;;;;;;;;;16.45;47.97;100271.25;5055222;28;1241;-50
2023/06/18 10:03:55;;;;;;;;;;;;;;;16.50;47.92;100272.03;5055104;28;1910;-50
2023/06/18 10:06:21;;;;;;;;;;;;;;;16.41;47.71;100266.34;5055540;28;1135;-52
2023/06/18 10:08:48;;;;;;;;;;;;;;;16.46;47.43;100261.94;5055083;28;901;-51
2023/06/18 10:11:14;;;;;;;;;;;;;;;16.47;47.28;100252.59;5056524;28;1012;-51
2023/06/18 10:13:58;;;;;;;;;;;;;;;16.38;47.32;100244.13;5059506;28;1171;-51
2023/06/18 10:16:25;;;;;;;;;;;;;;;16.43;47.45;100249.59;5059168;28;1008;-52
2023/06/18 10:19:11;;;;;;;;;;;;;;;16.42;47.45;100247.94;5061328;28;1092;-50
2023/06/18 10:21:46;;;;;;;;;;;;;;;16.48;47.41;100245.97;5053749;28;1978;-50
2023/06/18 10:24:13;;;;;;;;;;;;;;;16.37;47.75;100245.25;5058101;28;980;-51
2023/06/18 10:26:39;;;;;;;;;;;;;;;16.45;47.48;100241.06;5027281;28;1064;-53
2023/06/18 10:29:06;;;;;;;;;;;;;;;16.39;47.73;100241.09;5046588;28;1028;-51
2023/06/18 10:31:31;;;;;;;;;;;;;;;16.40;47.25;100240.00;5057796;28;1043;-51
2023/06/18 10:33:57;;;;;;;;;;;;;;;16.44;47.48;100234.78;5057856;28;1056;-51
2023/06/18 10:36:22;;;;;;;;;;;;;;;16.49;47.04;100228.41;5059136;28;996;-51
2023/06/18 10:38:48;;;;;;;;;;;;;;;16.42;47.57;100232.31;5063881;28;1104;-53
2023/06/18 10:41:17;;;;;;;;;;;;;;;16.40;47.67;100228.22;5066153;28;1123;-50
2023/06/18 10:43:42;;;;;;;;;;;;;;;16.41;47.69;100227.94;5058454;28;1978;-52
2023/06/18 10:46:11;;;;;;;;;;;;;;;16.38;47.71;100220.28;5043991;28;976;-49
2023/06/18 10:48:37;;;;;;;;;;;;;;;16.42;47.56;100226.84;5057983;28;1210;-52
2023/06/18 10:51:13;;;;;;;;;;;;;;;16.44;47.56;100223.78;5062849;28;1096;-52
2023/06/18 10:53:39;;;;;;;;;;;;;;;16.39;47.59;100224.63;5064443;28;1011;-52
2023/06/18 10:56:04;;;;;;;;;;;;;;;16.44;47.51;100243.00;5055147;28;1067;-50
2023/06/18 10:58:39;;;;;;;;;;;;;;;16.52;47.56;100242.41;5058328;28;1147;-45
2023/06/18 11:01:05;;;;;;;;;;;;;;;16.48;47.42;100243.22;5057864;28;1112;-51
2023/06/18 11:03:34;;;;;;;;;;;;;;;16.52;47.44;100252.53;5057726;28;1909;-52
2023/06/18 11:06:00;;;;;;;;;;;;;;;16.54;47.40;100258.56;5053577;28;1143;-50
2023/06/18 11:08:27;;;;;;;;;;;;;;;16.45;47.54;100249.31;5048592;28;981;-49
2023/06/18 11:11:00;;;;;;;;;;;;;;;16.50;47.37;100249.28;5044330;28;1211;-54
2023/06/18 11:13:27;;;;;;;;;;;;;;;16.46;47.56;100240.78;5057724;28;1059;-52
2023/06/18 11:15:59;;;;;;;;;;;;;;;16.49;47.30;100236.66;5057212;28;1033;-53
2023/06/18 11:18:28;;;;;;;;;;;;;;;16.57;47.48;100241.53;5057645;28;1112;-52
2023/06/18 11:20:55;;;;;;;;;;;;;;;16.49;47.48;100259.41;5057537;28;1012;-51
2023/06/18 11:23:21;;;;;;;;;;;;;;;16.38;47.62;100263.34;5057487;28;1906;-52
2023/06/18 11:25:46;;;;;;;;;;;;;;;16.57;47.32;100258.81;5057234;28;1032;-52
2023/06/18 11:28:13;;;;;;;;;;;;;;;16.54;47.55;100277.78;5057307;28;1012;-52
2023/06/18 11:30:40;;;;;;;;;;;;;;;16.56;47.33;100292.03;5047755;28;1000;-54
2023/06/18 11:33:06;;;;;;;;;;;;;;;16.45;47.44;100293.22;5053413;28;993;-49
2023/06/18 11:35:32;;;;;;;;;;;;;;;16.54;47.37;100322.50;5056765;28;1151;-54
2023/06/18 11:37:57;;;;;;;;;;;;;;;16.48;47.44;100339.28;5056594;28;1103;-55
2023/06/18 11:40:23;;;;;;;;;;;;;;;16.54;47.25;100358.19;5046049;28;1121;-53
2023/06/18 11:42:50;;;;;;;;;;;;;;;16.38;47.58;100356.63;5039268;28;1983;-55
2023/06/18 11:45:15;;;;;;;;;;;;;;;16.45;47.34;100350.84;5057064;28;1035;-54
2023/06/18 11:47:46;;;;;;;;;;;;;;;16.43;47.19;100346.44;5056771;28;1151;-51
2023/06/18 11:50:11;;;;;;;;;;;;;;;16.41;47.16;100361.53;5057247;28;1280;-52
2023/06/18 11:52:37;;;;;;;;;;;;;;;16.40;47.45;100410.13;5046842;28;1029;-53
2023/06/18 11:55:03;;;;;;;;;;;;;;;16.43;47.16;100419.72;5044206;28;1105;-53
2023/06/18 11:57:29;;;;;;;;;;;;;;;16.43;47.15;100423.28;5056186;28;1425;-50
2023/06/18 11:59:55;;;;;;;;;;;;;;;16.42;47.00;100405.19;5056576;28;1005;-53
2023/06/18 12:02:22;;;;;;;;;;;;;;;16.36;47.10;100397.28;5056269;28;1985;-47
2023/06/18 12:04:48;;;;;;;;;;;;;;;16.34;46.69;100405.78;5056947;28;1123;-50
2023/06/18 12:07:17;;;;;;;;;;;;;;;16.29;46.80;100414.03;5056346;28;1116;-49
2023/06/18 12:09:42;;;;;;;;;;;;;;;16.27;46.58;100404.44;5056034;28;1087;-52
2023/06/18 12:12:08;;;;;;;;;;;;;;;16.28;46.61;100404.16;5039590;28;1140;-50
2023/06/18 12:14:37;;;;;;;;;;;;;;;16.24;46.62;100422.25;5057711;28;1163;-51
2023/06/18 12:17:05;;;;;;;;;;;;;;;16.35;46.19;100423.88;5057195;28;1132;-48
2023/06/18 12:19:30;;;;;;;;;;;;;;;16.19;46.13;100431.34;5045186;28;1085;-47
2023/06/18 12:21:56;;;;;;;;;;;;;;;16.25;46.02;100429.41;5047582;28;1934;-54
2023/06/18 12:24:21;;;;;;;;;;;;;;;16.92;48.02;100431.88;5059017;28;945;-54
2023/06/18 12:26:47;;;;;;;;;;;;;;;16.43;48.01;100430.72;5037937;28;1111;-54
2023/06/18 12:29:13;;;;;;;;;;;;;;;16.52;47.27;100411.72;5038443;28;1067;-55
2023/06/18 12:31:38;;;;;;;;;;;;;;;16.30;47.16;100410.19;5038068;28;1041;-54
2023/06/18 12:34:04;;;;;;;;;;;;;;;16.36;46.63;100408.25;5055214;28;993;-53
2023/06/18 12:36:29;;;;;;;;;;;;;;;16.29;46.68;100408.53;5056226;28;1017;-55
2023/06/18 12:38:55;;;;;;;;;;;;;;;16.35;46.40;100406.59;5055824;28;1020;-50
2023/06/18 12:41:25;;;;;;;;;;;;;;;16.25;46.27;100407.47;5055463;28;1088;-53
2023/06/18 12:43:54;;;;;;;;;;;;;;;16.29;46.02;100419.50;5055720;28;1973;-52
2023/06/18 12:46:25;;;;;;;;;;;;;;;16.23;46.44;100413.22;5056267;28;1097;-51